createdAt,value
2023-03-02T00:01:48.918Z,72.82
2023-03-02T00:04:26.596Z,67.72
2023-03-02T00:07:02.021Z,70.18
2023-03-02T00:09:30.110Z,71.50
2023-03-02T00:11:57.585Z,69.75
2023-03-02T00:14:24.462Z,67.47
2023-03-02T00:16:52.086Z,67.45
2023-03-02T00:19:19.372Z,66.43
2023-03-02T00:21:46.576Z,76.20
2023-03-02T00:24:15.656Z,67.40
2023-03-02T00:26:43.073Z,70.55
2023-03-02T00:29:09.903Z,68.05
2023-03-02T00:31:38.157Z,66.63
2023-03-02T00:34:05.494Z,61.22
2023-03-02T00:36:32.856Z,66.72
2023-03-02T00:39:00.138Z,63.83
2023-03-02T00:41:27.779Z,64.15
2023-03-02T00:43:54.656Z,70.03
2023-03-02T00:46:23.235Z,72.88
2023-03-02T00:48:50.907Z,80.43
2023-03-02T00:51:18.548Z,73.05
2023-03-02T00:53:45.475Z,82.38
2023-03-02T00:56:12.823Z,81.10
2023-03-02T00:58:40.512Z,77.63
2023-03-02T01:01:10.857Z,70.10
2023-03-02T01:03:37.992Z,71.35
2023-03-02T01:06:05.898Z,73.05
2023-03-02T01:08:33.119Z,84.75
2023-03-02T01:11:01.538Z,75.32
2023-03-02T01:13:28.883Z,69.78
2023-03-02T01:16:03.391Z,74.03
2023-03-02T01:18:30.727Z,68.80
2023-03-02T01:21:05.923Z,68.00
2023-03-02T01:23:33.163Z,67.45
2023-03-02T01:26:00.076Z,65.97
2023-03-02T01:28:27.425Z,65.45
2023-03-02T01:30:54.627Z,59.42
2023-03-02T01:33:21.681Z,69.25
2023-03-02T01:35:49.029Z,69.25
2023-03-02T01:38:15.984Z,61.75
2023-03-02T01:40:42.843Z,73.95
2023-03-02T01:43:16.131Z,71.93
2023-03-02T01:45:43.338Z,73.75
2023-03-02T01:48:12.787Z,72.60
2023-03-02T01:50:40.171Z,65.03
2023-03-02T01:53:07.977Z,78.35
2023-03-02T01:55:39.013Z,76.03
2023-03-02T01:58:06.487Z,71.40
2023-03-02T02:00:38.673Z,66.10
2023-03-02T02:03:14.706Z,80.07
2023-03-02T02:05:44.265Z,82.72
2023-03-02T02:08:11.128Z,89.28
2023-03-02T02:10:39.833Z,79.55
2023-03-02T02:13:10.983Z,81.97
2023-03-02T02:15:38.985Z,81.15
2023-03-02T02:18:06.238Z,83.38
2023-03-02T02:20:34.055Z,90.18
2023-03-02T02:23:06.581Z,75.68
2023-03-02T02:25:58.353Z,77.20
2023-03-02T02:28:43.106Z,68.65
2023-03-02T02:31:26.738Z,65.47
2023-03-02T02:34:01.063Z,67.68
2023-03-02T02:36:34.113Z,68.22
2023-03-02T02:41:36.682Z,62.22
2023-03-02T02:44:04.004Z,62.60
2023-03-02T02:46:32.922Z,60.70
2023-03-02T02:49:02.370Z,64.93
2023-03-02T02:51:30.178Z,63.97
2023-03-02T02:54:00.265Z,69.05
2023-03-02T02:56:30.919Z,66.43
2023-03-02T02:59:20.973Z,63.95
2023-03-02T03:01:49.517Z,63.95
2023-03-02T03:04:22.147Z,65.38
2023-03-02T03:07:02.907Z,64.43
2023-03-02T03:09:30.703Z,68.80
2023-03-02T03:12:26.118Z,66.10
2023-03-02T03:14:53.989Z,67.15
2023-03-02T03:17:21.233Z,61.75
2023-03-02T03:19:48.516Z,68.30
2023-03-02T03:22:16.825Z,55.60
2023-03-02T03:24:44.698Z,64.10
2023-03-02T03:27:15.031Z,65.97
2023-03-02T03:29:45.412Z,62.80
2023-03-02T03:32:12.736Z,69.63
2023-03-02T03:34:42.062Z,67.68
2023-03-02T03:37:11.175Z,65.10
2023-03-02T03:39:38.376Z,66.72
2023-03-02T03:42:05.919Z,70.90
2023-03-02T03:44:33.186Z,63.53
2023-03-02T03:47:00.476Z,66.75
2023-03-02T03:49:28.155Z,67.07
2023-03-02T03:51:55.375Z,65.00
2023-03-02T03:54:22.447Z,69.10
2023-03-02T03:56:50.617Z,65.55
2023-03-02T03:59:21.323Z,66.72
2023-03-02T04:01:53.953Z,69.68
2023-03-02T04:04:24.542Z,64.10
2023-03-02T04:06:52.103Z,65.68
2023-03-02T04:09:19.448Z,65.30
2023-03-02T04:11:48.712Z,69.32
2023-03-02T04:14:16.045Z,74.28
2023-03-02T04:16:43.723Z,69.88
2023-03-02T04:19:12.083Z,66.82
2023-03-02T04:21:41.269Z,63.20
2023-03-02T04:24:09.351Z,70.70
2023-03-02T04:26:37.491Z,73.20
2023-03-02T04:29:04.753Z,75.05
2023-03-02T04:31:32.162Z,68.85
2023-03-02T04:33:59.668Z,66.53
2023-03-02T04:36:27.077Z,67.28
2023-03-02T04:38:54.568Z,74.03
2023-03-02T04:41:21.691Z,76.35
2023-03-02T04:43:48.984Z,77.55
2023-03-02T04:46:25.546Z,79.53
2023-03-02T04:48:53.300Z,84.70
2023-03-02T04:51:26.102Z,81.22
2023-03-02T04:53:55.105Z,85.82
2023-03-02T04:56:22.380Z,87.28
2023-03-02T04:58:49.580Z,85.93
2023-03-02T05:01:17.186Z,82.25
2023-03-02T05:03:44.631Z,86.15
2023-03-02T05:06:12.224Z,78.45
2023-03-02T05:08:39.582Z,77.45
2023-03-02T05:11:07.855Z,82.15
2023-03-02T05:13:35.382Z,77.90
2023-03-02T05:16:02.717Z,88.22
2023-03-02T05:18:30.128Z,74.75
2023-03-02T05:20:57.364Z,77.60
2023-03-02T05:23:25.852Z,83.82
2023-03-02T05:25:56.143Z,84.28
2023-03-02T05:28:25.326Z,87.45
2023-03-02T05:30:52.770Z,84.40
2023-03-02T05:33:20.447Z,86.53
2023-03-02T05:35:48.996Z,82.90
2023-03-02T05:38:16.250Z,83.22
2023-03-02T05:40:43.403Z,83.25
2023-03-02T05:43:13.848Z,81.10
2023-03-02T05:45:41.037Z,85.07
2023-03-02T05:48:08.514Z,79.50
2023-03-02T05:50:36.452Z,87.50
2023-03-02T05:53:03.748Z,84.10
2023-03-02T05:55:30.675Z,88.18
2023-03-02T05:57:57.973Z,88.70
2023-03-02T06:00:25.300Z,100.10
2023-03-02T06:02:52.520Z,95.82
2023-03-02T06:05:20.282Z,94.32
2023-03-02T06:07:47.477Z,99.70
2023-03-02T06:10:14.881Z,83.20
2023-03-02T06:12:41.946Z,82.72
2023-03-02T06:15:09.378Z,95.38
2023-03-02T06:17:36.448Z,86.18
2023-03-02T06:20:08.002Z,89.82
2023-03-02T06:22:35.184Z,86.68
2023-03-02T06:25:01.966Z,95.40
2023-03-02T06:27:29.243Z,93.30
2023-03-02T06:29:56.172Z,85.43
2023-03-02T06:32:23.431Z,93.43
2023-03-02T06:34:50.719Z,86.88
2023-03-02T06:37:17.512Z,84.13
2023-03-02T06:39:44.738Z,89.57
2023-03-02T06:42:11.552Z,81.15
2023-03-02T06:44:38.748Z,93.35
2023-03-02T06:47:05.540Z,88.25
2023-03-02T06:49:33.043Z,91.65
2023-03-02T06:52:00.216Z,87.60
2023-03-02T06:54:27.481Z,98.13
2023-03-02T06:56:55.489Z,86.65
2023-03-02T06:59:22.843Z,88.55
2023-03-02T07:01:50.680Z,90.90
2023-03-02T07:04:17.982Z,99.45
2023-03-02T07:06:45.167Z,91.22
2023-03-02T07:09:12.354Z,89.72
2023-03-02T07:11:39.596Z,100.82
2023-03-02T07:14:06.828Z,86.55
2023-03-02T07:16:34.590Z,99.90
2023-03-02T07:19:02.021Z,87.28
2023-03-02T07:21:29.211Z,88.63
2023-03-02T07:23:56.407Z,87.45
2023-03-02T07:26:23.707Z,91.32
2023-03-02T07:28:50.897Z,87.10
2023-03-02T07:31:17.850Z,93.57
2023-03-02T07:33:45.262Z,87.97
2023-03-02T07:36:12.638Z,86.55
2023-03-02T07:38:39.916Z,94.68
2023-03-02T07:41:08.468Z,85.10
2023-03-02T07:43:36.681Z,87.13
2023-03-02T07:46:05.308Z,86.18
2023-03-02T07:48:32.934Z,83.07
2023-03-02T07:51:04.478Z,95.55
2023-03-02T07:53:31.483Z,87.63
2023-03-02T07:55:58.904Z,93.47
2023-03-02T07:58:25.738Z,93.25
2023-03-02T08:00:52.951Z,83.40
2023-03-02T08:03:20.409Z,96.15
2023-03-02T08:05:47.318Z,112.25
2023-03-02T08:08:14.532Z,92.32
2023-03-02T08:10:41.408Z,87.13
2023-03-02T08:13:08.689Z,98.38
2023-03-02T08:15:35.889Z,110.10
2023-03-02T08:18:03.713Z,99.38
2023-03-02T08:20:30.551Z,90.50
2023-03-02T08:22:57.594Z,93.57
2023-03-02T08:25:24.837Z,92.22
2023-03-02T08:27:51.739Z,92.55
2023-03-02T08:30:18.802Z,95.97
2023-03-02T08:32:46.136Z,91.35
2023-03-02T08:35:13.233Z,100.10
2023-03-02T08:37:40.473Z,93.72
2023-03-02T08:40:07.953Z,104.82
2023-03-02T08:42:35.166Z,92.28
2023-03-02T08:45:02.367Z,127.93
2023-03-02T08:47:29.684Z,102.30
2023-03-02T08:49:56.882Z,94.82
2023-03-02T08:52:23.701Z,101.38
2023-03-02T08:54:50.950Z,99.07
2023-03-02T08:57:19.293Z,109.80
2023-03-02T08:59:52.362Z,100.25
2023-03-02T09:02:19.624Z,105.13
2023-03-02T09:04:46.895Z,95.35
2023-03-02T09:07:17.539Z,98.53
2023-03-02T09:09:45.025Z,113.00
2023-03-02T09:12:11.885Z,106.13
2023-03-02T09:14:39.195Z,100.25
2023-03-02T09:17:06.695Z,99.05
2023-03-02T09:19:43.968Z,105.35
2023-03-02T09:22:11.606Z,101.00
2023-03-02T09:24:38.793Z,96.32
2023-03-02T09:27:06.046Z,131.85
2023-03-02T09:29:33.250Z,105.32
2023-03-02T09:32:00.275Z,108.38
2023-03-02T09:34:27.595Z,115.93
2023-03-02T09:36:54.392Z,104.10
2023-03-02T09:39:21.291Z,100.18
2023-03-02T09:42:06.964Z,101.13
2023-03-02T09:44:50.519Z,114.53
2023-03-02T09:48:00.951Z,101.53
2023-03-02T09:50:36.991Z,110.80
2023-03-02T09:53:55.100Z,104.85
2023-03-02T09:56:22.251Z,110.65
2023-03-02T09:59:07.248Z,111.05
2023-03-02T10:01:47.205Z,98.07
2023-03-02T10:04:22.790Z,104.28
2023-03-02T10:06:57.812Z,107.65
2023-03-02T10:09:24.961Z,107.85
2023-03-02T10:12:08.106Z,111.80
2023-03-02T10:14:43.834Z,109.45
2023-03-02T10:17:22.406Z,111.15
2023-03-02T10:19:57.163Z,105.30
2023-03-02T10:22:42.480Z,120.07
2023-03-02T10:25:52.511Z,116.72
2023-03-02T10:28:19.702Z,112.07
2023-03-02T10:30:52.083Z,113.13
2023-03-02T10:33:21.210Z,124.65
2023-03-02T10:35:51.065Z,116.72
2023-03-02T10:38:25.482Z,115.72
2023-03-02T10:41:00.219Z,118.82
2023-03-02T10:43:37.761Z,116.82
2023-03-02T10:46:10.283Z,119.93
2023-03-02T10:48:54.037Z,112.93
2023-03-02T10:51:31.387Z,111.43
2023-03-02T10:54:07.264Z,138.93
2023-03-02T10:56:35.138Z,115.93
2023-03-02T10:59:12.398Z,124.45
2023-03-02T11:01:39.331Z,126.47
2023-03-02T11:04:14.693Z,122.10
2023-03-02T11:06:41.917Z,130.93
2023-03-02T11:09:14.025Z,121.85
2023-03-02T11:11:56.718Z,123.28
2023-03-02T11:14:24.016Z,138.07
2023-03-02T11:16:54.519Z,133.52
2023-03-02T11:19:39.110Z,126.95
2023-03-02T11:22:06.286Z,123.30
2023-03-02T11:24:41.627Z,130.55
2023-03-02T11:27:16.607Z,130.15
2023-03-02T11:29:52.575Z,126.93
2023-03-02T11:32:40.103Z,119.20
2023-03-02T11:35:21.589Z,137.18
2023-03-02T11:37:52.205Z,136.10
2023-03-02T11:40:19.407Z,131.93
2023-03-02T11:42:47.474Z,131.13
2023-03-02T11:45:14.294Z,121.53
2023-03-02T11:48:05.151Z,121.22
2023-03-02T11:50:41.115Z,125.35
2023-03-02T11:53:15.773Z,121.07
2023-03-02T11:55:50.817Z,126.22
2023-03-02T11:58:24.274Z,116.25
2023-03-02T12:00:52.286Z,104.97
2023-03-02T12:03:44.974Z,111.45
2023-03-02T12:06:14.888Z,107.95
2023-03-02T12:08:44.765Z,109.65
2023-03-02T12:11:17.962Z,101.70
2023-03-02T12:16:41.066Z,111.45
2023-03-02T12:19:16.962Z,109.38
2023-03-02T12:22:06.982Z,99.07
2023-03-02T12:24:36.419Z,110.05
2023-03-02T12:27:09.274Z,104.35
2023-03-02T12:29:41.369Z,99.63
2023-03-02T12:32:27.900Z,99.97
2023-03-02T12:35:00.343Z,86.47
2023-03-02T12:37:33.111Z,89.40
2023-03-02T12:40:02.225Z,97.95
2023-03-02T12:43:07.532Z,101.03
2023-03-02T12:46:24.096Z,91.57
2023-03-02T12:49:10.821Z,101.32
2023-03-02T12:52:00.760Z,100.38
2023-03-02T12:54:33.178Z,89.78
2023-03-02T12:57:14.045Z,96.73
2023-03-02T12:59:41.560Z,93.43
2023-03-02T13:02:23.740Z,91.18
2023-03-02T13:04:58.597Z,86.80
2023-03-02T13:07:35.767Z,84.53
2023-03-02T13:10:25.390Z,90.10
2023-03-02T13:12:52.341Z,82.35
2023-03-02T13:15:19.299Z,88.43
2023-03-02T13:17:54.314Z,81.05
2023-03-02T13:20:24.498Z,86.28
2023-03-02T13:22:51.669Z,80.85
2023-03-02T13:25:30.586Z,77.97
2023-03-02T13:28:07.978Z,82.78
2023-03-02T13:30:37.954Z,80.75
2023-03-02T13:33:21.735Z,66.95
2023-03-02T13:35:48.819Z,69.53
2023-03-02T13:38:24.182Z,67.15
2023-03-02T13:40:55.671Z,65.68
2023-03-02T13:43:37.358Z,65.40
2023-03-02T13:46:24.132Z,66.25
2023-03-02T13:49:11.528Z,67.15
2023-03-02T13:51:47.443Z,77.32
2023-03-02T13:54:22.233Z,109.82
2023-03-02T13:56:51.322Z,69.93
2023-03-02T13:59:20.153Z,64.95
2023-03-02T14:01:47.058Z,65.05
2023-03-02T14:04:21.609Z,64.80
2023-03-02T14:06:49.511Z,66.60
2023-03-02T14:09:16.508Z,65.10
2023-03-02T14:11:50.586Z,63.25
2023-03-02T14:14:24.003Z,64.60
2023-03-02T14:16:51.364Z,57.05
2023-03-02T14:19:18.686Z,55.70
2023-03-02T14:21:46.767Z,57.25
2023-03-02T14:24:14.257Z,51.88
2023-03-02T14:26:41.096Z,49.22
2023-03-02T14:29:29.460Z,48.42
2023-03-02T14:32:00.181Z,47.83
2023-03-02T14:34:28.249Z,48.28
2023-03-02T14:36:58.309Z,46.92
2023-03-02T14:39:40.942Z,60.05
2023-03-02T14:42:16.780Z,46.05
2023-03-02T14:44:45.999Z,48.03
2023-03-02T14:47:13.382Z,42.63
2023-03-02T14:49:40.863Z,41.95
2023-03-02T14:52:23.556Z,40.78
2023-03-02T14:54:57.497Z,40.40
2023-03-02T14:57:26.920Z,45.95
2023-03-02T14:59:55.110Z,38.33
2023-03-02T15:02:26.147Z,42.25
2023-03-02T15:04:56.599Z,41.53
2023-03-02T15:07:25.183Z,44.60
2023-03-02T15:09:52.014Z,59.50
2023-03-02T15:12:18.836Z,57.67
2023-03-02T15:14:45.665Z,51.85
2023-03-02T15:17:12.489Z,42.58
2023-03-02T15:19:39.337Z,37.65
2023-03-02T15:22:06.297Z,38.22
2023-03-02T15:24:33.602Z,39.47
2023-03-02T15:27:00.696Z,57.28
2023-03-02T15:29:27.670Z,49.15
2023-03-02T15:31:54.680Z,41.88
2023-03-02T15:34:21.719Z,44.50
2023-03-02T15:36:48.769Z,38.03
2023-03-02T15:39:16.772Z,29.75
2023-03-02T15:41:43.866Z,38.25
2023-03-02T15:44:22.733Z,28.85
2023-03-02T15:46:51.781Z,25.60
2023-03-02T15:49:22.965Z,24.38
2023-03-02T15:51:54.557Z,28.92
2023-03-02T15:54:22.199Z,28.00
2023-03-02T15:56:53.338Z,24.50
2023-03-02T15:59:21.176Z,24.60
2023-03-02T16:01:48.312Z,24.98
2023-03-02T16:04:15.452Z,23.20
2023-03-02T16:06:42.627Z,28.10
2023-03-02T16:09:09.598Z,24.95
2023-03-02T16:11:37.245Z,22.85
2023-03-02T16:14:04.313Z,25.42
2023-03-02T16:16:31.230Z,26.35
2023-03-02T16:18:59.138Z,21.25
2023-03-02T16:21:28.481Z,26.73
2023-03-02T16:24:03.067Z,28.38
2023-03-02T16:26:31.511Z,28.40
2023-03-02T16:28:59.610Z,28.88
2023-03-02T16:31:28.545Z,24.55
2023-03-02T16:33:57.605Z,25.00
2023-03-02T16:36:24.937Z,31.75
2023-03-02T16:38:52.500Z,30.90
2023-03-02T16:41:22.405Z,29.58
2023-03-02T16:43:52.288Z,27.40
2023-03-02T16:46:20.503Z,24.70
2023-03-02T16:48:48.084Z,24.55
2023-03-02T16:51:16.222Z,22.45
2023-03-02T16:53:43.199Z,24.80
2023-03-02T16:56:11.703Z,25.40
2023-03-02T16:58:39.816Z,29.92
2023-03-02T17:01:08.386Z,24.30
2023-03-02T17:03:35.301Z,30.40
2023-03-02T17:06:02.792Z,21.90
2023-03-02T17:08:29.651Z,25.23
2023-03-02T17:10:56.466Z,26.85
2023-03-02T17:13:23.410Z,27.10
2023-03-02T17:15:50.449Z,30.48
2023-03-02T17:18:17.398Z,32.10
2023-03-02T17:20:44.302Z,27.15
2023-03-02T17:23:14.280Z,29.90
2023-03-02T17:25:41.175Z,32.03
2023-03-02T17:28:09.295Z,28.88
2023-03-02T17:30:36.125Z,28.95
2023-03-02T17:33:02.963Z,28.02
2023-03-02T17:35:30.003Z,27.95
2023-03-02T17:37:57.087Z,28.38
2023-03-02T17:40:24.575Z,26.40
2023-03-02T17:42:54.533Z,26.52
2023-03-02T17:45:25.532Z,29.80
2023-03-02T17:47:53.991Z,27.48
2023-03-02T17:50:22.249Z,29.02
2023-03-02T17:52:49.146Z,24.95
2023-03-02T17:55:16.815Z,29.27
2023-03-02T17:57:43.685Z,29.80
2023-03-02T18:00:14.373Z,27.00
2023-03-02T18:02:41.253Z,27.45
2023-03-02T18:05:10.178Z,28.50
2023-03-02T18:07:37.599Z,27.00
2023-03-02T18:10:06.670Z,31.48
2023-03-02T18:12:34.278Z,34.10
2023-03-02T18:15:01.094Z,26.80
2023-03-02T18:17:28.053Z,31.83
2023-03-02T18:19:54.935Z,28.42
2023-03-02T18:22:22.153Z,28.67
2023-03-02T18:24:50.550Z,29.20
2023-03-02T18:27:17.509Z,26.45
2023-03-02T18:29:44.572Z,28.02
2023-03-02T18:32:11.770Z,26.52
2023-03-02T18:34:38.828Z,28.35
2023-03-02T18:37:05.660Z,23.10
2023-03-02T18:39:32.511Z,25.40
2023-03-02T18:41:59.748Z,28.58
2023-03-02T18:44:28.401Z,27.42
2023-03-02T18:46:56.566Z,29.38
2023-03-02T18:49:24.202Z,24.77
2023-03-02T18:51:51.349Z,27.67
2023-03-02T18:54:18.205Z,22.75
2023-03-02T18:56:45.051Z,21.77
2023-03-02T18:59:13.290Z,29.05
2023-03-02T19:01:40.271Z,27.80
2023-03-02T19:04:07.175Z,26.25
2023-03-02T19:06:34.328Z,27.30
2023-03-02T19:09:01.313Z,28.60
2023-03-02T19:11:28.215Z,27.48
2023-03-02T19:13:55.227Z,24.92
2023-03-02T19:16:22.268Z,30.13
2023-03-02T19:18:50.098Z,29.65
2023-03-02T19:21:17.308Z,28.98
2023-03-02T19:23:46.267Z,31.38
2023-03-02T19:26:13.698Z,34.58
2023-03-02T19:28:40.895Z,29.80
2023-03-02T19:31:11.289Z,39.45
2023-03-02T19:33:38.861Z,31.92
2023-03-02T19:36:06.289Z,26.48
2023-03-02T19:38:33.648Z,24.92
2023-03-02T19:41:02.112Z,30.02
2023-03-02T19:43:29.230Z,32.90
2023-03-02T19:45:56.378Z,25.50
2023-03-02T19:48:23.265Z,22.63
2023-03-02T19:50:51.544Z,31.52
2023-03-02T19:53:18.516Z,28.38
2023-03-02T19:55:45.748Z,29.48
2023-03-02T19:58:17.382Z,23.10
2023-03-02T20:00:45.199Z,24.58
2023-03-02T20:03:12.976Z,25.27
2023-03-02T20:05:40.194Z,83.38
2023-03-02T20:08:08.184Z,25.17
2023-03-02T20:10:41.488Z,27.45
2023-03-02T20:13:09.095Z,26.55
2023-03-02T20:15:39.755Z,35.03
2023-03-02T20:18:09.377Z,35.95
2023-03-02T20:20:36.617Z,33.55
2023-03-02T20:23:04.659Z,35.97
2023-03-02T20:25:32.606Z,41.65
2023-03-02T20:27:59.888Z,40.25
2023-03-02T20:30:34.873Z,35.05
2023-03-02T20:33:02.095Z,27.10
2023-03-02T20:35:31.290Z,26.25
2023-03-02T20:38:01.599Z,30.05
2023-03-02T20:40:29.517Z,33.20
2023-03-02T20:42:56.384Z,33.22
2023-03-02T20:45:23.932Z,41.42
2023-03-02T20:47:51.072Z,44.83
2023-03-02T20:50:23.545Z,38.25
2023-03-02T20:52:50.404Z,32.40
2023-03-02T20:55:17.284Z,36.63
2023-03-02T20:57:44.318Z,51.33
2023-03-02T21:00:18.171Z,34.55
2023-03-02T21:02:47.526Z,35.38
2023-03-02T21:05:16.203Z,34.92
2023-03-02T21:07:43.523Z,34.45
2023-03-02T21:10:16.140Z,35.63
2023-03-02T21:12:43.293Z,32.60
2023-03-02T21:15:10.835Z,49.25
2023-03-02T21:17:37.947Z,43.38
2023-03-02T21:20:06.597Z,42.20
2023-03-02T21:22:33.856Z,45.17
2023-03-02T21:25:00.786Z,49.35
2023-03-02T21:27:27.596Z,64.03
2023-03-02T21:29:55.793Z,44.30
2023-03-02T21:32:23.134Z,47.50
2023-03-02T21:34:50.028Z,47.65
2023-03-02T21:37:16.932Z,50.28
2023-03-02T21:39:44.291Z,53.28
2023-03-02T21:42:11.525Z,50.92
2023-03-02T21:44:38.362Z,53.28
2023-03-02T21:47:05.790Z,52.53
2023-03-02T21:49:32.634Z,49.55
2023-03-02T21:51:59.469Z,66.43
2023-03-02T21:54:26.336Z,54.72
2023-03-02T21:56:53.530Z,53.83
2023-03-02T21:59:20.360Z,62.67
2023-03-02T22:01:47.875Z,55.53
2023-03-02T22:04:14.803Z,63.45
2023-03-02T22:06:41.655Z,56.15
2023-03-02T22:09:08.527Z,52.90
2023-03-02T22:11:38.188Z,50.05
2023-03-02T22:14:17.657Z,50.58
2023-03-02T22:16:47.890Z,51.17
2023-03-02T22:19:32.731Z,51.47
2023-03-02T22:22:01.295Z,49.80
2023-03-02T22:24:30.372Z,50.17
2023-03-02T22:27:09.001Z,51.72
2023-03-02T22:29:42.289Z,57.08
2023-03-02T22:32:19.148Z,50.20
2023-03-02T22:34:48.053Z,54.08
2023-03-02T22:37:20.578Z,61.15
2023-03-02T22:39:48.448Z,62.92
2023-03-02T22:42:20.949Z,55.58
2023-03-02T22:45:12.888Z,61.58
2023-03-02T22:47:39.751Z,62.03
2023-03-02T22:50:24.746Z,55.80
2023-03-02T22:52:53.182Z,58.00
2023-03-02T22:55:42.424Z,58.05
2023-03-02T22:58:47.934Z,61.70
2023-03-02T23:01:22.307Z,60.30
2023-03-02T23:03:54.880Z,60.63
2023-03-02T23:06:28.830Z,54.25
2023-03-02T23:09:02.176Z,59.13
2023-03-02T23:11:31.636Z,56.65
2023-03-02T23:14:01.747Z,57.35
2023-03-02T23:16:35.984Z,60.97
2023-03-02T23:19:03.967Z,52.65
2023-03-02T23:21:38.499Z,56.63
2023-03-02T23:24:07.966Z,55.75
2023-03-02T23:26:35.198Z,54.35
2023-03-02T23:29:02.249Z,50.45
2023-03-02T23:31:29.164Z,44.33
2023-03-02T23:33:56.026Z,47.53
2023-03-02T23:36:23.150Z,46.28
2023-03-02T23:38:51.100Z,46.08
2023-03-02T23:41:18.393Z,154.07
2023-03-02T23:43:45.825Z,51.85
2023-03-02T23:46:14.386Z,45.03
2023-03-02T23:48:42.497Z,42.95
2023-03-02T23:51:10.418Z,47.08
2023-03-02T23:53:37.294Z,42.17
2023-03-02T23:56:04.246Z,44.05
2023-03-02T23:58:31.100Z,47.00
